createdAt,value
2019-02-27T00:00:12.869Z,4
2019-02-27T00:01:18.491Z,3.9
2019-02-27T00:02:24.310Z,3.9
2019-02-27T00:03:30.587Z,3.9
2019-02-27T00:04:36.529Z,3.8
2019-02-27T00:05:43.292Z,3.8
2019-02-27T00:06:49.372Z,3.8
2019-02-27T00:07:56.260Z,3.8
2019-02-27T00:09:02.321Z,3.7
2019-02-27T00:10:07.730Z,3.7
2019-02-27T00:11:13.885Z,3.7
2019-02-27T00:12:20.850Z,3.7
2019-02-27T00:13:26.360Z,3.7
2019-02-27T00:14:32.678Z,3.7
2019-02-27T00:15:39.407Z,3.6
2019-02-27T00:16:46.212Z,3.6
2019-02-27T00:17:53.003Z,3.5
2019-02-27T00:19:00.265Z,3.5
2019-02-27T00:20:06.459Z,3.6
2019-02-27T00:21:12.157Z,3.6
2019-02-27T00:22:19.668Z,3.5
2019-02-27T00:23:25.843Z,3.5
2019-02-27T00:24:31.898Z,3.5
2019-02-27T00:25:37.593Z,3.5
2019-02-27T00:26:43.957Z,3.5
2019-02-27T00:27:50.827Z,3.5
2019-02-27T00:28:57.628Z,3.5
2019-02-27T00:30:06.712Z,3.5
2019-02-27T00:31:13.243Z,3.5
2019-02-27T00:32:20.394Z,3.4
2019-02-27T00:33:29.759Z,3.3
2019-02-27T00:34:34.573Z,3.2
2019-02-27T00:35:40.520Z,3.2
2019-02-27T00:36:46.610Z,3.1
2019-02-27T00:37:53.589Z,3
2019-02-27T00:38:59.813Z,3
2019-02-27T00:40:07.192Z,3
2019-02-27T00:41:14.223Z,2.9
2019-02-27T00:42:33.932Z,3
2019-02-27T00:43:36.098Z,2.9
2019-02-27T00:44:38.207Z,2.9
2019-02-27T00:45:41.876Z,2.9
2019-02-27T00:46:47.939Z,2.9
2019-02-27T00:47:54.728Z,2.9
2019-02-27T00:49:00.756Z,2.9
2019-02-27T00:50:08.083Z,2.9
2019-02-27T00:51:14.484Z,2.9
2019-02-27T00:52:20.121Z,2.8
2019-02-27T00:53:26.399Z,3
2019-02-27T00:54:32.902Z,3
2019-02-27T00:55:40.401Z,2.9
2019-02-27T00:56:46.975Z,2.9
2019-02-27T00:57:49.080Z,2.9
2019-02-27T00:59:01.326Z,2.9
2019-02-27T01:00:08.089Z,2.8
2019-02-27T01:01:14.186Z,2.8
2019-02-27T01:02:21.760Z,2.8
2019-02-27T01:03:27.688Z,2.8
2019-02-27T01:04:30.196Z,2.7
2019-02-27T01:05:32.291Z,2.7
2019-02-27T01:06:34.429Z,2.6
2019-02-27T01:07:36.537Z,2.7
2019-02-27T01:08:38.670Z,2.7
2019-02-27T01:09:41.165Z,2.6
2019-02-27T01:10:46.789Z,2.5
2019-02-27T01:11:53.381Z,2.6
2019-02-27T01:12:59.690Z,2.6
2019-02-27T01:14:05.488Z,2.6
2019-02-27T01:15:12.437Z,2.6
2019-02-27T01:16:18.706Z,2.6
2019-02-27T01:17:25.373Z,2.7
2019-02-27T01:18:32.298Z,2.6
2019-02-27T01:19:43.122Z,2.6
2019-02-27T01:20:47.988Z,2.5
2019-02-27T01:21:50.095Z,2.5
2019-02-27T01:22:52.200Z,2.7
2019-02-27T01:23:54.319Z,2.6
2019-02-27T01:24:56.441Z,2.7
2019-02-27T01:25:58.551Z,2.6
2019-02-27T01:27:06.719Z,2.6
2019-02-27T01:28:12.533Z,2.5
2019-02-27T01:29:20.043Z,2.5
2019-02-27T01:30:25.813Z,2.6
2019-02-27T01:31:27.949Z,2.5
2019-02-27T01:32:32.713Z,2.6
2019-02-27T01:33:39.703Z,2.6
2019-02-27T01:34:46.353Z,2.5
2019-02-27T01:35:53.276Z,2.5
2019-02-27T01:36:59.894Z,2.6
2019-02-27T01:38:06.791Z,2.5
2019-02-27T01:39:12.888Z,2.6
2019-02-27T01:40:19.530Z,2.6
2019-02-27T01:41:26.034Z,2.7
2019-02-27T01:42:33.832Z,2.6
2019-02-27T01:43:41.625Z,2.6
2019-02-27T01:44:48.094Z,2.5
2019-02-27T01:45:56.055Z,2.7
2019-02-27T01:47:04.214Z,2.7
2019-02-27T01:48:10.727Z,2.7
2019-02-27T01:49:17.711Z,2.7
2019-02-27T01:50:24.165Z,2.6
2019-02-27T01:51:29.790Z,2.5
2019-02-27T01:52:35.505Z,2.5
2019-02-27T01:53:42.096Z,2.4
2019-02-27T01:54:50.334Z,2.4
2019-02-27T01:55:57.628Z,2.4
2019-02-27T01:57:04.694Z,2.3
2019-02-27T01:58:11.105Z,2.3
2019-02-27T01:59:18.727Z,2.3
2019-02-27T02:00:25.802Z,2.4
2019-02-27T02:01:31.697Z,2.4
2019-02-27T02:02:41.178Z,2.3
2019-02-27T02:03:48.787Z,2.3
2019-02-27T02:04:54.782Z,2.4
2019-02-27T02:06:01.010Z,2.5
2019-02-27T02:07:08.496Z,2.5
2019-02-27T02:08:15.922Z,2.4
2019-02-27T02:09:22.535Z,2.4
2019-02-27T02:10:29.714Z,2.4
2019-02-27T02:11:36.492Z,2.3
2019-02-27T02:12:43.422Z,2.4
2019-02-27T02:13:49.802Z,2.4
2019-02-27T02:14:55.846Z,2.5
2019-02-27T02:16:02.413Z,2.4
2019-02-27T02:17:09.124Z,2.4
2019-02-27T02:18:15.148Z,2.3
2019-02-27T02:19:22.254Z,2.3
2019-02-27T02:20:28.685Z,2.3
2019-02-27T02:21:35.875Z,2.3
2019-02-27T02:22:42.790Z,2.3
2019-02-27T02:23:49.390Z,2.3
2019-02-27T02:24:55.518Z,2.3
2019-02-27T02:26:02.522Z,2.3
2019-02-27T02:27:09.745Z,2.3
2019-02-27T02:28:16.385Z,2.2
2019-02-27T02:29:21.890Z,2.2
2019-02-27T02:30:31.909Z,2.1
2019-02-27T02:31:34.049Z,2.1
2019-02-27T02:32:36.324Z,2
2019-02-27T02:33:38.457Z,2
2019-02-27T02:34:41.992Z,2
2019-02-27T02:35:52.210Z,2.1
2019-02-27T02:37:01.188Z,2.1
2019-02-27T02:38:05.038Z,2.1
2019-02-27T02:39:07.453Z,2
2019-02-27T02:40:09.968Z,2
2019-02-27T02:41:12.373Z,2.1
2019-02-27T02:42:14.487Z,2
2019-02-27T02:43:16.930Z,2.1
2019-02-27T02:44:23.044Z,2
2019-02-27T02:45:26.303Z,2
2019-02-27T02:46:28.844Z,2
2019-02-27T02:47:30.964Z,2
2019-02-27T02:48:34.059Z,2
2019-02-27T02:49:44.336Z,2
2019-02-27T02:50:46.480Z,2
2019-02-27T02:51:49.199Z,2.1
2019-02-27T02:52:51.903Z,2
2019-02-27T02:54:02.466Z,2
2019-02-27T02:55:04.871Z,2
2019-02-27T02:56:07.020Z,2
2019-02-27T02:57:09.186Z,1.9
2019-02-27T02:58:13.294Z,1.9
2019-02-27T02:59:16.104Z,2
2019-02-27T03:00:19.124Z,1.9
2019-02-27T03:01:21.252Z,1.9
2019-02-27T03:02:26.350Z,2
2019-02-27T03:03:35.744Z,2.1
2019-02-27T03:04:39.348Z,2
2019-02-27T03:05:42.271Z,2
2019-02-27T03:06:44.939Z,1.9
2019-02-27T03:07:47.751Z,1.9
2019-02-27T03:08:57.426Z,1.9
2019-02-27T03:09:59.576Z,1.8
2019-02-27T03:11:01.716Z,1.9
2019-02-27T03:12:04.261Z,1.8
2019-02-27T03:13:08.813Z,1.8
2019-02-27T03:14:18.803Z,1.9
2019-02-27T03:15:20.931Z,1.9
2019-02-27T03:16:23.703Z,1.8
2019-02-27T03:17:25.812Z,1.8
2019-02-27T03:18:31.443Z,1.8
2019-02-27T03:19:33.572Z,1.7
2019-02-27T03:20:36.099Z,1.7
2019-02-27T03:21:38.781Z,1.7
2019-02-27T03:22:42.941Z,1.7
2019-02-27T03:23:53.414Z,1.7
2019-02-27T03:24:55.943Z,1.6
2019-02-27T03:25:58.077Z,1.6
2019-02-27T03:27:00.219Z,1.6
2019-02-27T03:28:06.840Z,1.6
2019-02-27T03:29:08.962Z,1.7
2019-02-27T03:30:11.731Z,1.6
2019-02-27T03:31:21.470Z,1.7
2019-02-27T03:32:24.196Z,1.6
2019-02-27T03:33:28.518Z,1.6
2019-02-27T03:34:30.702Z,1.5
2019-02-27T03:35:33.119Z,1.5
2019-02-27T03:36:40.601Z,1.4
2019-02-27T03:37:50.766Z,1.4
2019-02-27T03:39:00.381Z,1.4
2019-02-27T03:40:03.230Z,1.4
2019-02-27T03:41:06.137Z,1.3
2019-02-27T03:42:08.557Z,1.3
2019-02-27T03:43:12.868Z,1.3
2019-02-27T03:44:22.308Z,1.2
2019-02-27T03:45:32.090Z,1.3
2019-02-27T03:46:34.282Z,1.2
2019-02-27T03:47:42.822Z,1.2
2019-02-27T03:48:45.601Z,1.2
2019-02-27T03:49:47.728Z,1.2
2019-02-27T03:50:52.591Z,1.1
2019-02-27T03:52:02.977Z,1.1
2019-02-27T03:53:12.690Z,1.4
2019-02-27T03:54:22.629Z,1.3
2019-02-27T03:55:24.766Z,1.3
2019-02-27T03:56:26.933Z,1.3
2019-02-27T03:57:29.406Z,1.2
2019-02-27T03:58:32.564Z,1.2
2019-02-27T03:59:35.260Z,1.2
2019-02-27T04:00:45.894Z,1.3
2019-02-27T04:01:48.028Z,1.3
2019-02-27T04:02:50.465Z,1.2
2019-02-27T04:03:56.430Z,1.1
2019-02-27T04:05:07.421Z,1.1
2019-02-27T04:06:09.661Z,1
2019-02-27T04:07:12.457Z,1
2019-02-27T04:08:15.139Z,1
2019-02-27T04:09:21.491Z,1
2019-02-27T04:10:24.166Z,1
2019-02-27T04:11:33.768Z,1
2019-02-27T04:12:36.182Z,0.9
2019-02-27T04:13:38.727Z,0.9
2019-02-27T04:14:43.210Z,0.9
2019-02-27T04:15:45.334Z,0.9
2019-02-27T04:16:47.844Z,0.9
2019-02-27T04:17:54.345Z,0.9
2019-02-27T04:19:04.942Z,0.9
2019-02-27T04:20:07.857Z,0.9
2019-02-27T04:21:10.283Z,1
2019-02-27T04:22:12.689Z,1
2019-02-27T04:23:15.665Z,1
2019-02-27T04:24:24.098Z,0.9
2019-02-27T04:25:33.182Z,0.9
2019-02-27T04:26:42.682Z,0.9
2019-02-27T04:27:44.858Z,0.8
2019-02-27T04:28:47.010Z,0.9
2019-02-27T04:29:49.425Z,0.8
2019-02-27T04:30:53.023Z,0.9
2019-02-27T04:31:55.139Z,0.8
2019-02-27T04:32:57.302Z,0.8
2019-02-27T04:34:02.565Z,0.8
2019-02-27T04:35:07.816Z,0.9
2019-02-27T04:36:14.376Z,0.8
2019-02-27T04:37:21.958Z,0.9
2019-02-27T04:38:29.369Z,0.8
2019-02-27T04:39:31.475Z,0.8
2019-02-27T04:40:33.576Z,0.9
2019-02-27T04:41:35.687Z,0.8
2019-02-27T04:42:38.082Z,0.8
2019-02-27T04:43:40.213Z,0.8
2019-02-27T04:44:42.327Z,0.8
2019-02-27T04:45:48.486Z,0.8
2019-02-27T04:46:55.610Z,0.8
2019-02-27T04:47:59.308Z,0.8
2019-02-27T04:49:06.073Z,0.8
2019-02-27T04:50:12.791Z,0.7
2019-02-27T04:51:18.616Z,0.7
2019-02-27T04:52:25.589Z,0.7
2019-02-27T04:53:33.473Z,0.7
2019-02-27T04:54:36.185Z,0.8
2019-02-27T04:55:38.306Z,0.7
2019-02-27T04:56:40.422Z,0.7
2019-02-27T04:57:42.822Z,0.7
2019-02-27T04:58:44.935Z,0.7
2019-02-27T04:59:47.059Z,0.7
2019-02-27T05:00:53.997Z,0.6
2019-02-27T05:01:56.122Z,0.6
2019-02-27T05:02:58.536Z,0.7
2019-02-27T05:04:03.835Z,0.9
2019-02-27T05:05:10.069Z,0.8
2019-02-27T05:06:16.163Z,0.7
2019-02-27T05:07:21.786Z,0.6
2019-02-27T05:08:28.652Z,0.8
2019-02-27T05:09:35.929Z,0.6
2019-02-27T05:10:42.304Z,0.6
2019-02-27T05:11:49.278Z,0.6
2019-02-27T05:12:51.404Z,0.6
2019-02-27T05:13:55.839Z,1
2019-02-27T05:14:57.960Z,0.8
2019-02-27T05:16:05.711Z,0.8
2019-02-27T05:17:08.134Z,0.8
2019-02-27T05:18:10.228Z,0.7
2019-02-27T05:19:12.737Z,0.8
2019-02-27T05:20:14.855Z,0.8
2019-02-27T05:21:20.679Z,0.8
2019-02-27T05:22:28.218Z,0.9
2019-02-27T05:23:35.058Z,0.8
2019-02-27T05:24:42.210Z,0.8
2019-02-27T05:25:44.327Z,0.7
2019-02-27T05:26:46.432Z,0.7
2019-02-27T05:27:48.533Z,0.7
2019-02-27T05:28:50.651Z,0.6
2019-02-27T05:29:52.754Z,0.5
2019-02-27T05:30:54.861Z,0.6
2019-02-27T05:31:57.577Z,0.6
2019-02-27T05:33:03.772Z,0.6
2019-02-27T05:34:06.207Z,0.6
2019-02-27T05:35:08.337Z,0.7
2019-02-27T05:36:10.451Z,0.6
2019-02-27T05:37:12.584Z,0.7
2019-02-27T05:38:15.100Z,0.8
2019-02-27T05:39:18.934Z,0.8
2019-02-27T05:40:26.848Z,0.8
2019-02-27T05:41:34.224Z,0.7
2019-02-27T05:42:40.825Z,0.7
2019-02-27T05:43:49.360Z,0.7
2019-02-27T05:44:57.646Z,0.7
2019-02-27T05:46:04.674Z,0.6
2019-02-27T05:47:12.221Z,0.6
2019-02-27T05:48:14.344Z,0.8
2019-02-27T05:49:16.438Z,1.1
2019-02-27T05:50:18.554Z,0.9
2019-02-27T05:51:20.950Z,0.9
2019-02-27T05:52:23.080Z,0.8
2019-02-27T05:53:25.176Z,0.8
2019-02-27T05:54:29.900Z,0.9
2019-02-27T05:55:40.030Z,0.8
2019-02-27T05:56:42.409Z,0.8
2019-02-27T05:57:44.529Z,0.7
2019-02-27T05:58:46.645Z,0.9
2019-02-27T05:59:48.772Z,0.9
2019-02-27T06:00:50.875Z,0.8
2019-02-27T06:01:52.968Z,0.8
2019-02-27T06:02:57.034Z,0.7
2019-02-27T06:03:59.429Z,0.7
2019-02-27T06:05:02.325Z,0.8
2019-02-27T06:06:04.462Z,1.1
2019-02-27T06:07:08.670Z,1
2019-02-27T06:08:10.770Z,0.8
2019-02-27T06:09:12.899Z,0.8
2019-02-27T06:10:23.825Z,0.8
2019-02-27T06:11:33.907Z,0.7
2019-02-27T06:12:41.461Z,0.7
2019-02-27T06:13:49.105Z,0.7
2019-02-27T06:14:56.452Z,0.7
2019-02-27T06:16:09.760Z,0.7
2019-02-27T06:17:14.455Z,0.7
2019-02-27T06:18:16.916Z,0.7
2019-02-27T06:19:19.054Z,0.7
2019-02-27T06:20:21.175Z,0.6
2019-02-27T06:21:23.276Z,0.8
2019-02-27T06:22:31.698Z,0.7
2019-02-27T06:23:39.327Z,0.9
2019-02-27T06:24:47.432Z,0.8
2019-02-27T06:25:49.932Z,0.6
2019-02-27T06:26:52.066Z,0.7
2019-02-27T06:27:54.170Z,0.6
2019-02-27T06:28:56.285Z,0.6
2019-02-27T06:30:00.835Z,0.6
2019-02-27T06:31:04.113Z,0.8
2019-02-27T06:32:06.234Z,0.7
2019-02-27T06:33:13.272Z,0.7
2019-02-27T06:34:16.147Z,0.8
2019-02-27T06:35:18.259Z,0.7
2019-02-27T06:36:20.391Z,0.7
2019-02-27T06:37:22.506Z,0.8
2019-02-27T06:38:26.804Z,0.8
2019-02-27T06:39:28.910Z,0.8
2019-02-27T06:40:31.475Z,0.9
2019-02-27T06:41:33.598Z,0.9
2019-02-27T06:42:35.752Z,0.9
2019-02-27T06:43:37.890Z,0.9
2019-02-27T06:44:40.832Z,1.1
2019-02-27T06:45:47.527Z,1.1
2019-02-27T06:46:55.981Z,1
2019-02-27T06:47:58.093Z,1.1
2019-02-27T06:49:00.492Z,1
2019-02-27T06:50:03.176Z,1.1
2019-02-27T06:51:05.293Z,1.1
2019-02-27T06:52:10.771Z,1
2019-02-27T06:53:17.753Z,1
2019-02-27T06:54:20.354Z,1.1
2019-02-27T06:55:22.462Z,1.1
2019-02-27T06:56:29.560Z,1.1
2019-02-27T06:57:31.667Z,1.2
2019-02-27T06:58:34.451Z,1.2
2019-02-27T06:59:36.558Z,1.3
2019-02-27T07:00:38.697Z,1.8
2019-02-27T07:01:40.803Z,1.7
2019-02-27T07:02:42.917Z,1.7
2019-02-27T07:03:45.033Z,1.8
2019-02-27T07:04:47.122Z,1.9
2019-02-27T07:05:49.926Z,2
2019-02-27T07:06:56.902Z,1.8
2019-02-27T07:07:59.013Z,2
2019-02-27T07:09:01.719Z,2
2019-02-27T07:10:03.850Z,2
2019-02-27T07:11:12.924Z,2.3
2019-02-27T07:12:15.083Z,2.2
2019-02-27T07:13:17.193Z,2.1
2019-02-27T07:14:19.324Z,2.2
2019-02-27T07:15:21.441Z,2.3
2019-02-27T07:16:24.743Z,2.3
2019-02-27T07:17:32.441Z,2.5
2019-02-27T07:18:42.702Z,2.2
2019-02-27T07:19:47.347Z,2.3
2019-02-27T07:20:51.706Z,2.4
2019-02-27T07:21:53.804Z,2.5
2019-02-27T07:22:55.936Z,2.5
2019-02-27T07:23:59.976Z,2.6
2019-02-27T07:25:07.499Z,2.5
2019-02-27T07:26:09.610Z,2.6
2019-02-27T07:27:12.020Z,2.5
2019-02-27T07:28:14.142Z,2.5
2019-02-27T07:29:28.733Z,2.5
2019-02-27T07:30:30.882Z,2.5
2019-02-27T07:31:32.993Z,2.7
2019-02-27T07:32:35.124Z,2.8
2019-02-27T07:33:42.433Z,3
2019-02-27T07:34:50.625Z,3.3
2019-02-27T07:35:52.741Z,3.4
2019-02-27T07:36:54.868Z,3.5
2019-02-27T07:37:57.381Z,3.6
2019-02-27T07:38:59.477Z,3.8
2019-02-27T07:40:01.608Z,3.9
2019-02-27T07:41:04.321Z,4.1
2019-02-27T07:42:06.432Z,4.3
2019-02-27T07:43:08.549Z,4.5
2019-02-27T07:44:10.665Z,4.7
2019-02-27T07:45:12.776Z,5
2019-02-27T07:46:14.912Z,5
2019-02-27T07:47:17.304Z,5.4
2019-02-27T07:48:19.410Z,5.4
2019-02-27T07:49:21.523Z,5.5
2019-02-27T07:50:23.662Z,5.6
2019-02-27T07:51:25.773Z,5.6
2019-02-27T07:52:34.114Z,5.6
2019-02-27T07:53:36.233Z,5.8
2019-02-27T07:54:38.338Z,5.9
2019-02-27T07:55:40.754Z,6.1
2019-02-27T07:56:43.560Z,6.2
2019-02-27T07:57:46.352Z,6.3
2019-02-27T07:58:48.454Z,6.7
2019-02-27T07:59:50.587Z,6.8
2019-02-27T08:00:52.692Z,6.6
2019-02-27T08:01:54.832Z,6.6
2019-02-27T08:02:56.956Z,6.9
2019-02-27T08:03:59.343Z,7
2019-02-27T08:05:01.477Z,7.1
2019-02-27T08:06:04.484Z,7.1
2019-02-27T08:07:06.615Z,7
2019-02-27T08:08:08.724Z,7.2
2019-02-27T08:09:10.861Z,7.5
2019-02-27T08:10:12.991Z,7.2
2019-02-27T08:11:15.357Z,7.1
2019-02-27T08:12:21.658Z,7.2
2019-02-27T08:13:23.766Z,7.5
2019-02-27T08:14:25.904Z,7.6
2019-02-27T08:15:28.057Z,7.8
2019-02-27T08:16:30.187Z,7.7
2019-02-27T08:17:32.307Z,7.6
2019-02-27T08:18:39.087Z,7.8
2019-02-27T08:19:47.121Z,7.8
2019-02-27T08:20:49.245Z,8.1
2019-02-27T08:21:56.284Z,8.1
2019-02-27T08:22:59.094Z,8.2
2019-02-27T08:24:08.568Z,8.3
2019-02-27T08:25:10.712Z,8.6
2019-02-27T08:26:12.838Z,8.5
2019-02-27T08:27:14.966Z,8.6
2019-02-27T08:28:17.148Z,8.6
2019-02-27T08:29:19.654Z,8.8
2019-02-27T08:30:21.803Z,8.3
2019-02-27T08:31:32.309Z,8.7
2019-02-27T08:32:36.274Z,8.6
2019-02-27T08:33:38.396Z,8.8
2019-02-27T08:34:40.897Z,8.8
2019-02-27T08:35:43.301Z,8.9
2019-02-27T08:36:45.434Z,9.1
2019-02-27T08:37:47.556Z,9.3
2019-02-27T08:38:50.299Z,9.4
2019-02-27T08:39:53.207Z,9.3
2019-02-27T08:40:59.415Z,9.1
2019-02-27T08:42:05.286Z,9.3
2019-02-27T08:43:10.992Z,9.5
2019-02-27T08:44:14.293Z,9.5
2019-02-27T08:45:26.619Z,9.8
2019-02-27T08:46:29.745Z,9.7
2019-02-27T08:47:33.926Z,9.6
2019-02-27T08:48:36.060Z,9.7
2019-02-27T08:49:38.598Z,10
2019-02-27T08:50:40.731Z,10
2019-02-27T08:51:44.059Z,10.3
2019-02-27T08:54:48.730Z,10.3
2019-02-27T08:55:51.249Z,10.4
2019-02-27T08:56:53.381Z,10.2
2019-02-27T08:57:58.141Z,10.7
2019-02-27T08:59:04.865Z,10.7
2019-02-27T09:00:08.329Z,10.8
2019-02-27T09:01:10.475Z,10.8
2019-02-27T09:02:12.598Z,10.8
2019-02-27T09:03:22.045Z,11
2019-02-27T09:04:24.575Z,10.8
2019-02-27T09:05:26.695Z,10.9
2019-02-27T09:06:29.393Z,10.9
2019-02-27T09:07:37.214Z,11
2019-02-27T09:08:45.242Z,11
2019-02-27T09:09:55.599Z,11.2
2019-02-27T09:10:57.746Z,11.3
2019-02-27T09:11:59.883Z,11.6
2019-02-27T09:13:07.358Z,11.5
2019-02-27T09:14:12.972Z,11.6
2019-02-27T09:15:15.129Z,11.7
2019-02-27T09:16:17.567Z,12.1
2019-02-27T09:17:19.705Z,11.6
2019-02-27T09:18:24.317Z,11.8
2019-02-27T09:19:26.498Z,11.8
2019-02-27T09:20:28.631Z,12.1
2019-02-27T09:21:30.757Z,11.8
2019-02-27T09:22:38.132Z,11.9
2019-02-27T09:23:40.274Z,12.3
2019-02-27T09:24:42.407Z,12.2
2019-02-27T09:25:44.540Z,12.4
2019-02-27T09:26:46.676Z,12.1
2019-02-27T09:27:48.817Z,12.2
2019-02-27T09:28:50.981Z,12.3
2019-02-27T09:29:56.535Z,12.3
2019-02-27T09:31:05.466Z,12.3
2019-02-27T09:32:13.475Z,12.6
2019-02-27T09:33:22.574Z,12.7
2019-02-27T09:34:28.567Z,12.7
2019-02-27T09:35:40.010Z,12.7
2019-02-27T09:36:44.808Z,12.5
2019-02-27T09:37:52.791Z,12.6
2019-02-27T09:38:58.959Z,12.6
2019-02-27T09:40:07.072Z,12.9
2019-02-27T09:41:13.960Z,13.1
2019-02-27T09:42:20.666Z,13.2
2019-02-27T09:43:29.074Z,12.9
2019-02-27T09:44:31.202Z,13.3
2019-02-27T09:45:36.501Z,13.3
2019-02-27T09:46:38.650Z,13
2019-02-27T09:47:40.787Z,13.5
2019-02-27T09:48:43.219Z,13.5
2019-02-27T09:49:45.349Z,13.7
2019-02-27T09:50:50.358Z,13.7
2019-02-27T09:51:57.877Z,13.9
2019-02-27T09:53:05.920Z,14
2019-02-27T09:54:15.007Z,13.8
2019-02-27T09:55:21.791Z,13.9
2019-02-27T09:56:30.048Z,14
2019-02-27T09:57:37.624Z,14.1
2019-02-27T09:58:46.790Z,14.1
2019-02-27T09:59:54.471Z,14.1
2019-02-27T10:01:04.360Z,14.1
2019-02-27T10:02:13.167Z,13.8
2019-02-27T10:03:22.664Z,14.1
2019-02-27T10:04:29.942Z,14.1
2019-02-27T10:05:41.052Z,14.4
2019-02-27T10:06:44.545Z,14
2019-02-27T10:07:53.044Z,14.2
2019-02-27T10:09:00.705Z,14.3
2019-02-27T10:10:02.857Z,14.2
2019-02-27T10:11:05.345Z,14.4
2019-02-27T10:12:07.469Z,13.9
2019-02-27T10:13:09.605Z,14.3
2019-02-27T10:14:16.371Z,14.9
2019-02-27T10:15:19.021Z,14.5
2019-02-27T10:16:21.167Z,14.2
2019-02-27T10:17:23.304Z,13.9
2019-02-27T10:18:25.452Z,14.4
2019-02-27T10:19:29.142Z,14.7
2019-02-27T10:20:31.296Z,14.6
2019-02-27T10:21:33.824Z,14.6
2019-02-27T10:22:35.956Z,14.1
2019-02-27T10:23:38.111Z,14.5
2019-02-27T10:24:40.910Z,14.9
2019-02-27T10:25:45.130Z,14.9
2019-02-27T10:26:47.270Z,15.2
2019-02-27T10:27:49.421Z,15.5
2019-02-27T10:28:51.546Z,15.3
2019-02-27T10:29:53.679Z,15.4
2019-02-27T10:30:55.816Z,15.3
2019-02-27T10:32:02.215Z,15.2
2019-02-27T10:33:05.020Z,15.3
2019-02-27T10:34:07.441Z,15.3
2019-02-27T10:35:09.611Z,15.1
2019-02-27T10:36:12.157Z,15.7
2019-02-27T10:37:20.373Z,15.8
2019-02-27T10:38:26.075Z,15.6
2019-02-27T10:39:28.856Z,16.2
2019-02-27T10:40:31.277Z,16.1
2019-02-27T10:41:33.397Z,16
2019-02-27T10:42:35.818Z,16.2
2019-02-27T10:43:38.267Z,16.3
2019-02-27T10:44:40.384Z,16.2
2019-02-27T10:45:49.465Z,16.7
2019-02-27T10:46:53.492Z,16.7
2019-02-27T10:47:55.627Z,17.1
2019-02-27T10:48:57.777Z,16.7
2019-02-27T10:50:04.672Z,16.9
2019-02-27T10:51:10.717Z,16.4
2019-02-27T10:52:12.854Z,16.4
2019-02-27T10:53:15.008Z,16.7
2019-02-27T10:54:17.712Z,16.7
2019-02-27T10:55:19.850Z,16.8
2019-02-27T10:56:25.757Z,16.5
2019-02-27T10:57:39.663Z,16.5
2019-02-27T10:58:41.805Z,16.8
2019-02-27T10:59:44.223Z,17.3
2019-02-27T11:00:47.782Z,17.4
2019-02-27T11:01:49.902Z,17.2
2019-02-27T11:02:54.357Z,17.1
2019-02-27T11:03:56.525Z,17.5
2019-02-27T11:04:58.657Z,17.4
2019-02-27T11:06:00.821Z,17.5
2019-02-27T11:07:02.954Z,17.2
2019-02-27T11:08:05.096Z,17.6
2019-02-27T11:09:07.261Z,17.5
2019-02-27T11:10:09.693Z,17.5
2019-02-27T11:11:17.873Z,17.7
2019-02-27T11:12:20.308Z,17.9
2019-02-27T11:13:22.459Z,18
2019-02-27T11:14:24.614Z,17.8
2019-02-27T11:15:26.743Z,17.9
2019-02-27T11:16:29.419Z,18.1
2019-02-27T11:17:31.576Z,18.2
2019-02-27T11:18:33.701Z,18.2
2019-02-27T11:19:36.127Z,18.1
2019-02-27T11:20:38.317Z,18.2
2019-02-27T11:21:40.742Z,18.2
2019-02-27T11:22:43.174Z,18.5
2019-02-27T11:23:45.314Z,18
2019-02-27T11:24:53.494Z,18.1
2019-02-27T11:25:58.689Z,18.2
2019-02-27T11:27:03.391Z,18
2019-02-27T11:28:09.105Z,18.1
2019-02-27T11:29:11.249Z,18
2019-02-27T11:30:13.407Z,18
2019-02-27T11:31:16.659Z,18
2019-02-27T11:32:24.953Z,18.2
2019-02-27T11:33:32.359Z,18.1
2019-02-27T11:34:35.882Z,18.4
2019-02-27T11:35:38.003Z,18.7
2019-02-27T11:36:40.751Z,18.6
2019-02-27T11:37:48.916Z,18.2
2019-02-27T11:38:51.454Z,18.3
2019-02-27T11:39:53.613Z,18.7
2019-02-27T11:40:56.024Z,18.8
2019-02-27T11:41:58.480Z,18.6
2019-02-27T11:43:08.341Z,18.9
2019-02-27T11:44:15.806Z,18.9
2019-02-27T11:45:17.935Z,18.9
2019-02-27T11:46:20.083Z,18.8
2019-02-27T11:47:22.218Z,19.1
2019-02-27T11:48:24.564Z,19.1
2019-02-27T11:49:26.726Z,19.4
2019-02-27T11:50:28.883Z,19.5
2019-02-27T11:51:31.616Z,19.6
2019-02-27T11:52:33.734Z,19.7
2019-02-27T11:53:37.560Z,19.8
2019-02-27T11:54:44.820Z,19
2019-02-27T11:55:48.991Z,19.1
2019-02-27T11:56:57.793Z,19
2019-02-27T11:58:06.031Z,19.1
2019-02-27T11:59:14.020Z,19.2
2019-02-27T12:00:22.315Z,19.3
2019-02-27T12:01:24.482Z,19.3
2019-02-27T12:02:38.675Z,19.1
2019-02-27T12:03:43.362Z,19
2019-02-27T12:04:48.547Z,18.8
2019-02-27T12:05:55.782Z,19.3
2019-02-27T12:06:57.955Z,19.2
2019-02-27T12:08:00.102Z,19.4
2019-02-27T12:09:02.260Z,19.6
2019-02-27T12:10:09.615Z,20
2019-02-27T12:11:15.454Z,19.9
2019-02-27T12:12:17.595Z,19.9
2019-02-27T12:13:24.582Z,19.5
2019-02-27T12:14:26.737Z,19.5
2019-02-27T12:15:28.868Z,19.5
2019-02-27T12:16:33.278Z,19.8
2019-02-27T12:17:35.513Z,19.9
2019-02-27T12:18:37.670Z,20
2019-02-27T12:19:46.131Z,19.9
2019-02-27T12:20:52.981Z,19.8
2019-02-27T12:22:01.258Z,19.7
2019-02-27T12:23:03.401Z,19.4
2019-02-27T12:24:06.574Z,19.1
2019-02-27T12:25:08.711Z,20
2019-02-27T12:26:10.846Z,19.8
2019-02-27T12:27:50.608Z,19.5
2019-02-27T12:28:54.556Z,19.2
2019-02-27T12:29:56.700Z,19.6
2019-02-27T12:30:58.837Z,19.8
2019-02-27T12:32:00.999Z,19.9
2019-02-27T12:33:03.530Z,20
2019-02-27T12:34:05.673Z,19.8
2019-02-27T12:35:12.590Z,20.2
2019-02-27T12:36:20.307Z,20.2
2019-02-27T12:37:35.467Z,19.9
2019-02-27T12:38:43.103Z,19.7
2019-02-27T12:39:50.900Z,19.8
2019-02-27T12:40:53.046Z,19.6
2019-02-27T12:41:55.499Z,19.6
2019-02-27T12:42:58.073Z,19.9
2019-02-27T12:44:00.619Z,19.9
2019-02-27T12:45:02.798Z,20
2019-02-27T12:46:05.271Z,19.9
2019-02-27T12:47:07.407Z,19.7
2019-02-27T12:48:12.538Z,19.8
2019-02-27T12:49:21.804Z,20.1
2019-02-27T12:50:31.723Z,19.7
2019-02-27T12:51:39.853Z,19.8
2019-02-27T12:52:48.933Z,19.4
2019-02-27T12:53:56.104Z,19.4
2019-02-27T12:55:03.434Z,19.3
2019-02-27T12:56:09.162Z,19.7
2019-02-27T12:57:11.296Z,20
2019-02-27T12:58:14.900Z,19.8
2019-02-27T12:59:17.061Z,19.7
2019-02-27T13:00:19.203Z,19.8
2019-02-27T13:01:21.339Z,19.9
2019-02-27T13:02:36.845Z,19.9
2019-02-27T13:03:43.950Z,19.9
2019-02-27T13:04:46.129Z,19.7
2019-02-27T13:05:48.278Z,19.4
2019-02-27T13:06:50.409Z,20
2019-02-27T13:07:52.558Z,19.7
2019-02-27T13:08:56.751Z,19.8
2019-02-27T13:10:00.489Z,20.1
2019-02-27T13:11:05.210Z,20
2019-02-27T13:12:10.542Z,19.8
2019-02-27T13:13:12.677Z,20
2019-02-27T13:14:14.810Z,19.8
2019-02-27T13:15:16.968Z,19.9
2019-02-27T13:16:19.099Z,19.6
2019-02-27T13:17:23.151Z,20
2019-02-27T13:18:25.283Z,20.3
2019-02-27T13:19:27.432Z,19.8
2019-02-27T13:20:30.026Z,19.1
2019-02-27T13:21:32.175Z,19.4
2019-02-27T13:22:34.668Z,19.1
2019-02-27T13:23:43.134Z,19.2
2019-02-27T13:24:51.582Z,19.4
2019-02-27T13:25:53.716Z,19.5
2019-02-27T13:26:55.847Z,19.6
2019-02-27T13:27:57.988Z,19.5
2019-02-27T13:29:00.139Z,19.4
2019-02-27T13:30:10.289Z,19.6
2019-02-27T13:31:18.231Z,19.7
2019-02-27T13:32:20.385Z,19.8
2019-02-27T13:33:23.090Z,19.6
2019-02-27T13:34:25.236Z,19.3
2019-02-27T13:35:30.249Z,19.4
2019-02-27T13:36:35.611Z,19.4
2019-02-27T13:37:38.037Z,19.2
2019-02-27T13:38:40.186Z,18.9
2019-02-27T13:39:42.317Z,18.6
2019-02-27T13:40:44.492Z,19
2019-02-27T13:41:46.913Z,19.2
2019-02-27T13:42:54.949Z,19.2
2019-02-27T13:44:03.110Z,18.7
2019-02-27T13:45:13.962Z,18.8
2019-02-27T13:46:16.088Z,18.9
2019-02-27T13:47:18.232Z,18.8
2019-02-27T13:48:20.693Z,18.8
2019-02-27T13:49:22.826Z,19
2019-02-27T13:50:28.273Z,19
2019-02-27T13:51:30.417Z,19.1
2019-02-27T13:52:32.561Z,19
2019-02-27T13:53:34.729Z,19.1
2019-02-27T13:54:39.271Z,19.2
2019-02-27T13:55:41.707Z,19.2
2019-02-27T13:56:43.874Z,19.3
2019-02-27T13:57:46.015Z,19.5
2019-02-27T13:58:49.186Z,19.3
2019-02-27T13:59:51.330Z,19.3
2019-02-27T14:00:56.433Z,19.2
2019-02-27T14:02:06.750Z,19
2019-02-27T14:03:14.300Z,18.8
2019-02-27T14:04:16.437Z,18.9
2019-02-27T14:05:24.220Z,18.8
2019-02-27T14:06:26.362Z,18.9
2019-02-27T14:07:28.876Z,19
2019-02-27T14:08:33.922Z,19
2019-02-27T14:09:36.362Z,18.8
2019-02-27T14:10:43.243Z,19
2019-02-27T14:11:46.074Z,19
2019-02-27T14:12:48.224Z,18.8
2019-02-27T14:13:50.354Z,18.6
2019-02-27T14:14:56.746Z,18.4
2019-02-27T14:16:03.114Z,18.8
2019-02-27T14:17:12.031Z,19.1
2019-02-27T14:18:17.646Z,18.8
2019-02-27T14:19:25.358Z,18.9
2019-02-27T14:20:30.221Z,18.9
2019-02-27T14:21:37.153Z,18.5
2019-02-27T14:22:42.862Z,18.5
2019-02-27T14:23:49.285Z,18.5
2019-02-27T14:24:58.250Z,18.4
2019-02-27T14:26:09.057Z,18.6
2019-02-27T14:27:16.123Z,18.7
2019-02-27T14:28:22.501Z,18.6
2019-02-27T14:29:31.563Z,18.2
2019-02-27T14:30:37.942Z,18.3
2019-02-27T14:31:44.985Z,18.3
2019-02-27T14:32:49.451Z,18.5
2019-02-27T14:33:56.140Z,18.3
2019-02-27T14:35:02.510Z,18.3
2019-02-27T14:36:10.108Z,18.2
2019-02-27T14:37:17.694Z,18.2
2019-02-27T14:38:23.826Z,18.2
2019-02-27T14:39:31.309Z,18
2019-02-27T14:40:42.401Z,18.3
2019-02-27T14:41:52.029Z,17.9
2019-02-27T14:42:56.134Z,17.9
2019-02-27T14:43:59.651Z,18.2
2019-02-27T14:45:07.336Z,18
2019-02-27T14:46:13.279Z,18
2019-02-27T14:47:17.993Z,17.9